Aviation Digital Data Service (ADDS)

Output produced by METARs form (1443 UTC 24 August 2019)
found at http://www.aviationweather.gov/metar/data/
 
METAR text: SPZO 241430Z VRB02KT 9999 NSC 13/01 Q1037 NOSIG RMK BIRD HAZARD RWY 28
Conditions at: SPZO (CUZCO/VELAZCO AS, PE) observed 1430 UTC 24 August 2019
Temperature: 13.0°C (55°F)
Dewpoint: 1.0°C (34°F) [RH = 44%]
Pressure (altimeter): 30.62 inches Hg (1037.0 mb)
Winds: variable direction winds at 2 MPH (2 knots; 1.0 m/s)
Visibility: 6 or more miles (10+ km)
Ceiling: at least 12,000 feet AGL
Clouds: sky clear below 12,000 feet AGL
Weather: no significant weather observed at this time

METAR text: SPZO 241400Z 03002KT 9999 NSC 11/01 Q1037 NOSIG RMK HZ QUAD E BIRD HAZARD RWY 28 PP000
Conditions at: SPZO (CUZCO/VELAZCO AS, PE) observed 1400 UTC 24 August 2019
Temperature: 11.0°C (52°F)
Dewpoint: 1.0°C (34°F) [RH = 50%]
Pressure (altimeter): 30.62 inches Hg (1037.0 mb)
Winds: from the NNE (30 degrees) at 2 MPH (2 knots; 1.0 m/s)
Visibility: 6 or more miles (10+ km)
Ceiling: at least 12,000 feet AGL
Clouds: sky clear below 12,000 feet AGL
Weather: no significant weather observed at this time

METAR text: SPZO 241330Z 20001KT 9999 NSC 10/01 Q1037 NOSIG RMK HZ QUAD E BIRD HAZARD RWY 28
Conditions at: SPZO (CUZCO/VELAZCO AS, PE) observed 1330 UTC 24 August 2019
Temperature: 10.0°C (50°F)
Dewpoint: 1.0°C (34°F) [RH = 53%]
Pressure (altimeter): 30.62 inches Hg (1037.0 mb)
Winds: from the SSW (200 degrees) at 1 MPH (1 knots; 0.5 m/s)
Visibility: 6 or more miles (10+ km)
Ceiling: at least 12,000 feet AGL
Clouds: sky clear below 12,000 feet AGL
Weather: no significant weather observed at this time

METAR text: SPZO 241300Z VRB01KT 9999 NSC 08/M00 Q1037 NOSIG RMK HZ QUAD E BIRD HAZARD RWY 28 PP000
Conditions at: SPZO (CUZCO/VELAZCO AS, PE) observed 1300 UTC 24 August 2019
Temperature: 8.0°C (46°F)
Dewpoint: 0.0°C (32°F) [RH = 57%]
Pressure (altimeter): 30.62 inches Hg (1037.0 mb)
Winds: variable direction winds at 1 MPH (1 knots; 0.5 m/s)
Visibility: 6 or more miles (10+ km)
Ceiling: at least 12,000 feet AGL
Clouds: sky clear below 12,000 feet AGL
Weather: no significant weather observed at this time

METAR text: SPZO 241230Z VRB01KT 9999 FEW043 07/M00 Q1037 NOSIG RMK HZ QUAD E BIRD HAZARD RWY 28
Conditions at: SPZO (CUZCO/VELAZCO AS, PE) observed 1230 UTC 24 August 2019
Temperature: 7.0°C (45°F)
Dewpoint: 0.0°C (32°F) [RH = 61%]
Pressure (altimeter): 30.62 inches Hg (1037.0 mb)
Winds: variable direction winds at 1 MPH (1 knots; 0.5 m/s)
Visibility: 6 or more miles (10+ km)
Ceiling: at least 12,000 feet AGL
Clouds: few clouds at 4300 feet AGL
Weather: no significant weather observed at this time

METAR text: SPZO 241200Z 09002KT 9999 FEW043 04/M01 Q1037 NOSIG RMK HZ QUAD E TN01.7 BIRD HAZARD RWY 28 PP000
Conditions at: SPZO (CUZCO/VELAZCO AS, PE) observed 1200 UTC 24 August 2019
Temperature: 4.0°C (39°F)
Dewpoint: -1.0°C (30°F) [RH = 70%]
Pressure (altimeter): 30.62 inches Hg (1037.0 mb)
Winds: from the E (90 degrees) at 2 MPH (2 knots; 1.0 m/s)
Visibility: 6 or more miles (10+ km)
Ceiling: at least 12,000 feet AGL
Clouds: few clouds at 4300 feet AGL
Weather: no significant weather observed at this time

METAR text: SPZO 241130Z 00000KT 9999 FEW043 03/M01 Q1037 NOSIG RMK HZ QUAD E BIRD HAZARD RWY 28
Conditions at: SPZO (CUZCO/VELAZCO AS, PE) observed 1130 UTC 24 August 2019
Temperature: 3.0°C (37°F)
Dewpoint: -1.0°C (30°F) [RH = 75%]
Pressure (altimeter): 30.62 inches Hg (1037.0 mb)
Winds: calm
Visibility: 6 or more miles (10+ km)
Ceiling: at least 12,000 feet AGL
Clouds: few clouds at 4300 feet AGL
Weather: no significant weather observed at this time

METAR text: SPZO 241100Z 34001KT 9999 NSC 02/M02 Q1037 NOSIG RMK BIRD HAZARD RWY 28 PP000
Conditions at: SPZO (CUZCO/VELAZCO AS, PE) observed 1100 UTC 24 August 2019
Temperature: 2.0°C (36°F)
Dewpoint: -2.0°C (28°F) [RH = 75%]
Pressure (altimeter): 30.62 inches Hg (1037.0 mb)
Winds: from the NNW (340 degrees) at 1 MPH (1 knots; 0.5 m/s)
Visibility: 6 or more miles (10+ km)
Ceiling: at least 12,000 feet AGL
Clouds: sky clear below 12,000 feet AGL
Weather: no significant weather observed at this time

METAR text: SPZO 241030Z 00000KT 9999 NSC 03/M02 Q1036 NOSIG RMK BIRD HAZARD RWY 28
Conditions at: SPZO (CUZCO/VELAZCO AS, PE) observed 1030 UTC 24 August 2019
Temperature: 3.0°C (37°F)
Dewpoint: -2.0°C (28°F) [RH = 70%]
Pressure (altimeter): 30.59 inches Hg (1036.0 mb)
Winds: calm
Visibility: 6 or more miles (10+ km)
Ceiling: at least 12,000 feet AGL
Clouds: sky clear below 12,000 feet AGL
Weather: no significant weather observed at this time

METAR text: SPZO 241000Z 00000KT 9999 NSC 03/M01 Q1036 RMK BIRD HAZARD RWY 28 PP000
Conditions at: SPZO (CUZCO/VELAZCO AS, PE) observed 1000 UTC 24 August 2019
Temperature: 3.0°C (37°F)
Dewpoint: -1.0°C (30°F) [RH = 75%]
Pressure (altimeter): 30.59 inches Hg (1036.0 mb)
Winds: calm
Visibility: 6 or more miles (10+ km)
Ceiling: at least 12,000 feet AGL
Clouds: sky clear below 12,000 feet AGL
Weather: no significant weather observed at this time

METAR text: SPZO 240900Z 00000KT 9999 NSC 04/M01 Q1035 RMK BIRD HAZARD RWY 28 PP000
Conditions at: SPZO (CUZCO/VELAZCO AS, PE) observed 0900 UTC 24 August 2019
Temperature: 4.0°C (39°F)
Dewpoint: -1.0°C (30°F) [RH = 70%]
Pressure (altimeter): 30.56 inches Hg (1035.0 mb)
Winds: calm
Visibility: 6 or more miles (10+ km)
Ceiling: at least 12,000 feet AGL
Clouds: sky clear below 12,000 feet AGL
Weather: no significant weather observed at this time

METAR text: SPZO 240800Z 29002KT 9999 NSC 03/M02 Q1035 RMK BIRD HAZARD RWY 28 PP000
Conditions at: SPZO (CUZCO/VELAZCO AS, PE) observed 0800 UTC 24 August 2019
Temperature: 3.0°C (37°F)
Dewpoint: -2.0°C (28°F) [RH = 70%]
Pressure (altimeter): 30.56 inches Hg (1035.0 mb)
Winds: from the WNW (290 degrees) at 2 MPH (2 knots; 1.0 m/s)
Visibility: 6 or more miles (10+ km)
Ceiling: at least 12,000 feet AGL
Clouds: sky clear below 12,000 feet AGL
Weather: no significant weather observed at this time

METAR text: SPZO 240700Z 00000KT 9999 NSC 04/M01 Q1035 RMK BIRD HAZARD RWY 28 PP000
Conditions at: SPZO (CUZCO/VELAZCO AS, PE) observed 0700 UTC 24 August 2019
Temperature: 4.0°C (39°F)
Dewpoint: -1.0°C (30°F) [RH = 70%]
Pressure (altimeter): 30.56 inches Hg (1035.0 mb)
Winds: calm
Visibility: 6 or more miles (10+ km)
Ceiling: at least 12,000 feet AGL
Clouds: sky clear below 12,000 feet AGL
Weather: no significant weather observed at this time

METAR text: SPZO 240600Z 10002KT 9999 NSC 05/M01 Q1035 RMK BIRD HAZARD RWY 28 PP000
Conditions at: SPZO (CUZCO/VELAZCO AS, PE) observed 0600 UTC 24 August 2019
Temperature: 5.0°C (41°F)
Dewpoint: -1.0°C (30°F) [RH = 65%]
Pressure (altimeter): 30.56 inches Hg (1035.0 mb)
Winds: from the E (100 degrees) at 2 MPH (2 knots; 1.0 m/s)
Visibility: 6 or more miles (10+ km)
Ceiling: at least 12,000 feet AGL
Clouds: sky clear below 12,000 feet AGL
Weather: no significant weather observed at this time

METAR text: SPZO 240500Z 34001KT 9999 NSC 06/M02 Q1035 RMK BIRD HAZARD RWY 28 PP000
Conditions at: SPZO (CUZCO/VELAZCO AS, PE) observed 0500 UTC 24 August 2019
Temperature: 6.0°C (43°F)
Dewpoint: -2.0°C (28°F) [RH = 56%]
Pressure (altimeter): 30.56 inches Hg (1035.0 mb)
Winds: from the NNW (340 degrees) at 1 MPH (1 knots; 0.5 m/s)
Visibility: 6 or more miles (10+ km)
Ceiling: at least 12,000 feet AGL
Clouds: sky clear below 12,000 feet AGL
Weather: no significant weather observed at this time

METAR text: SPZO 240400Z 08003KT 9999 NSC 07/M01 Q1036 RMK BIRD HAZARD RWY 28 PP000
Conditions at: SPZO (CUZCO/VELAZCO AS, PE) observed 0400 UTC 24 August 2019
Temperature: 7.0°C (45°F)
Dewpoint: -1.0°C (30°F) [RH = 57%]
Pressure (altimeter): 30.59 inches Hg (1036.0 mb)
Winds: from the E (80 degrees) at 3 MPH (3 knots; 1.5 m/s)
Visibility: 6 or more miles (10+ km)
Ceiling: at least 12,000 feet AGL
Clouds: sky clear below 12,000 feet AGL
Weather: no significant weather observed at this time

METAR text: SPZO 240300Z 10002KT 9999 NSC 08/M01 Q1036 RMK BIRD HAZARD RWY 28 PP000
Conditions at: SPZO (CUZCO/VELAZCO AS, PE) observed 0300 UTC 24 August 2019
Temperature: 8.0°C (46°F)
Dewpoint: -1.0°C (30°F) [RH = 53%]
Pressure (altimeter): 30.59 inches Hg (1036.0 mb)
Winds: from the E (100 degrees) at 2 MPH (2 knots; 1.0 m/s)
Visibility: 6 or more miles (10+ km)
Ceiling: at least 12,000 feet AGL
Clouds: sky clear below 12,000 feet AGL
Weather: no significant weather observed at this time

METAR text: SPZO 240200Z 09003KT 9999 NSC 09/M00 Q1035 NOSIG RMK BIRD HAZARD RWY 28 PP000
Conditions at: SPZO (CUZCO/VELAZCO AS, PE) observed 0200 UTC 24 August 2019
Temperature: 9.0°C (48°F)
Dewpoint: 0.0°C (32°F) [RH = 53%]
Pressure (altimeter): 30.56 inches Hg (1035.0 mb)
Winds: from the E (90 degrees) at 3 MPH (3 knots; 1.5 m/s)
Visibility: 6 or more miles (10+ km)
Ceiling: at least 12,000 feet AGL
Clouds: sky clear below 12,000 feet AGL
Weather: no significant weather observed at this time

METAR text: SPZO 240130Z 12003KT 9999 NSC 10/M00 Q1035 NOSIG RMK BIRD HAZARD RWY 28
Conditions at: SPZO (CUZCO/VELAZCO AS, PE) observed 0130 UTC 24 August 2019
Temperature: 10.0°C (50°F)
Dewpoint: 0.0°C (32°F) [RH = 50%]
Pressure (altimeter): 30.56 inches Hg (1035.0 mb)
Winds: from the ESE (120 degrees) at 3 MPH (3 knots; 1.5 m/s)
Visibility: 6 or more miles (10+ km)
Ceiling: at least 12,000 feet AGL
Clouds: sky clear below 12,000 feet AGL
Weather: no significant weather observed at this time

METAR text: SPZO 240100Z 10004KT 9999 NSC 11/M00 Q1034 NOSIG RMK BIRD HAZARD RWY 28 PP000
Conditions at: SPZO (CUZCO/VELAZCO AS, PE) observed 0100 UTC 24 August 2019
Temperature: 11.0°C (52°F)
Dewpoint: 0.0°C (32°F) [RH = 47%]
Pressure (altimeter): 30.53 inches Hg (1034.0 mb)
Winds: from the E (100 degrees) at 5 MPH (4 knots; 2.1 m/s)
Visibility: 6 or more miles (10+ km)
Ceiling: at least 12,000 feet AGL
Clouds: sky clear below 12,000 feet AGL
Weather: no significant weather observed at this time

METAR text: SPZO 240030Z 10008KT 9999 NSC 11/M01 Q1034 NOSIG RMK BIRD HAZARD RWY 28
Conditions at: SPZO (CUZCO/VELAZCO AS, PE) observed 0030 UTC 24 August 2019
Temperature: 11.0°C (52°F)
Dewpoint: -1.0°C (30°F) [RH = 43%]
Pressure (altimeter): 30.53 inches Hg (1034.0 mb)
Winds: from the E (100 degrees) at 9 MPH (8 knots; 4.1 m/s)
Visibility: 6 or more miles (10+ km)
Ceiling: at least 12,000 feet AGL
Clouds: sky clear below 12,000 feet AGL
Weather: no significant weather observed at this time

METAR text: SPZO 240000Z 09008KT 9999 NSC 12/M01 Q1033 NOSIG RMK BIRD HAZARD RWY 28 PP000
Conditions at: SPZO (CUZCO/VELAZCO AS, PE) observed 0000 UTC 24 August 2019
Temperature: 12.0°C (54°F)
Dewpoint: -1.0°C (30°F) [RH = 40%]
Pressure (altimeter): 30.50 inches Hg (1033.0 mb)
Winds: from the E (90 degrees) at 9 MPH (8 knots; 4.1 m/s)
Visibility: 6 or more miles (10+ km)
Ceiling: at least 12,000 feet AGL
Clouds: sky clear below 12,000 feet AGL
Weather: no significant weather observed at this time

METAR text: SPZO 232330Z 35004KT 9999 NSC 13/M01 Q1033 NOSIG RMK BIRD HAZARD RWY 28
Conditions at: SPZO (CUZCO/VELAZCO AS, PE) observed 2330 UTC 23 August 2019
Temperature: 13.0°C (55°F)
Dewpoint: -1.0°C (30°F) [RH = 38%]
Pressure (altimeter): 30.50 inches Hg (1033.0 mb)
Winds: from the N (350 degrees) at 5 MPH (4 knots; 2.1 m/s)
Visibility: 6 or more miles (10+ km)
Ceiling: at least 12,000 feet AGL
Clouds: sky clear below 12,000 feet AGL
Weather: no significant weather observed at this time

METAR text: SPZO 232300Z 02005KT 320V070 9999 NSC 15/M01 Q1032 NOSIG RMK FU QUAD E BIRD HAZARD RWY 28 PP000
Conditions at: SPZO (CUZCO/VELAZCO AS, PE) observed 2300 UTC 23 August 2019
Temperature: 15.0°C (59°F)
Dewpoint: -1.0°C (30°F) [RH = 33%]
Pressure (altimeter): 30.47 inches Hg (1032.0 mb)
Winds: from the NNE (20 degrees) at 6 MPH (5 knots; 2.6 m/s)
Visibility: 6 or more miles (10+ km)
Ceiling: at least 12,000 feet AGL
Clouds: sky clear below 12,000 feet AGL
Weather: no significant weather observed at this time

METAR text: SPZO 232230Z 01006KT 9999 FEW050 16/M01 Q1031 NOSIG RMK FU QUAD E BIRD HAZARD RWY 28
Conditions at: SPZO (CUZCO/VELAZCO AS, PE) observed 2230 UTC 23 August 2019
Temperature: 16.0°C (61°F)
Dewpoint: -1.0°C (30°F) [RH = 31%]
Pressure (altimeter): 30.44 inches Hg (1031.0 mb)
Winds: from the N (10 degrees) at 7 MPH (6 knots; 3.1 m/s)
Visibility: 6 or more miles (10+ km)
Ceiling: at least 12,000 feet AGL
Clouds: few clouds at 5000 feet AGL
Weather: no significant weather observed at this time

METAR text: SPZO 232200Z 01006KT 9999 FEW050 17/M04 Q1031 NOSIG RMK TX19.8 BIRD HAZARD RWY 28 PP000
Conditions at: SPZO (CUZCO/VELAZCO AS, PE) observed 2200 UTC 23 August 2019
Temperature: 17.0°C (63°F)
Dewpoint: -4.0°C (25°F) [RH = 23%]
Pressure (altimeter): 30.44 inches Hg (1031.0 mb)
Winds: from the N (10 degrees) at 7 MPH (6 knots; 3.1 m/s)
Visibility: 6 or more miles (10+ km)
Ceiling: at least 12,000 feet AGL
Clouds: few clouds at 5000 feet AGL
Weather: no significant weather observed at this time

METAR text: SPZO 232130Z VRB03KT 9999 FEW050 19/M05 Q1031 NOSIG RMK BIRD HAZARD RWY 28
Conditions at: SPZO (CUZCO/VELAZCO AS, PE) observed 2130 UTC 23 August 2019
Temperature: 19.0°C (66°F)
Dewpoint: -5.0°C (23°F) [RH = 19%]
Pressure (altimeter): 30.44 inches Hg (1031.0 mb)
Winds: variable direction winds at 3 MPH (3 knots; 1.5 m/s)
Visibility: 6 or more miles (10+ km)
Ceiling: at least 12,000 feet AGL
Clouds: few clouds at 5000 feet AGL
Weather: no significant weather observed at this time

METAR text: SPZO 232100Z 35003KT 9999 FEW050 19/M08 Q1032 NOSIG RMK BIRD HAZARD RWY 28 PP000
Conditions at: SPZO (CUZCO/VELAZCO AS, PE) observed 2100 UTC 23 August 2019
Temperature: 19.0°C (66°F)
Dewpoint: -8.0°C (18°F) [RH = 15%]
Pressure (altimeter): 30.47 inches Hg (1032.0 mb)
Winds: from the N (350 degrees) at 3 MPH (3 knots; 1.5 m/s)
Visibility: 6 or more miles (10+ km)
Ceiling: at least 12,000 feet AGL
Clouds: few clouds at 5000 feet AGL
Weather: no significant weather observed at this time

METAR text: SPZO 232030Z 17004KT 110V240 9999 FEW050 19/M09 Q1032 NOSIG RMK BIRD HAZARD RWY 28
Conditions at: SPZO (CUZCO/VELAZCO AS, PE) observed 2030 UTC 23 August 2019
Temperature: 19.0°C (66°F)
Dewpoint: -9.0°C (16°F) [RH = 14%]
Pressure (altimeter): 30.47 inches Hg (1032.0 mb)
Winds: from the S (170 degrees) at 5 MPH (4 knots; 2.1 m/s)
Visibility: 6 or more miles (10+ km)
Ceiling: at least 12,000 feet AGL
Clouds: few clouds at 5000 feet AGL
Weather: no significant weather observed at this time

METAR text: SPZO 232000Z 13002KT 9999 FEW050 19/M08 Q1032 NOSIG RMK BIRD HAZARD RWY 28 PP000
Conditions at: SPZO (CUZCO/VELAZCO AS, PE) observed 2000 UTC 23 August 2019
Temperature: 19.0°C (66°F)
Dewpoint: -8.0°C (18°F) [RH = 15%]
Pressure (altimeter): 30.47 inches Hg (1032.0 mb)
Winds: from the SE (130 degrees) at 2 MPH (2 knots; 1.0 m/s)
Visibility: 6 or more miles (10+ km)
Ceiling: at least 12,000 feet AGL
Clouds: few clouds at 5000 feet AGL
Weather: no significant weather observed at this time

METAR text: SPZO 231930Z 04008KT 9999 FEW050 18/M07 Q1033 NOSIG RMK BIRD HAZARD RWY 28
Conditions at: SPZO (CUZCO/VELAZCO AS, PE) observed 1930 UTC 23 August 2019
Temperature: 18.0°C (64°F)
Dewpoint: -7.0°C (19°F) [RH = 18%]
Pressure (altimeter): 30.50 inches Hg (1033.0 mb)
Winds: from the NE (40 degrees) at 9 MPH (8 knots; 4.1 m/s)
Visibility: 6 or more miles (10+ km)
Ceiling: at least 12,000 feet AGL
Clouds: few clouds at 5000 feet AGL
Weather: no significant weather observed at this time

METAR text: SPZO 231900Z 19003KT 9999 FEW050 19/M06 Q1034 NOSIG RMK BIRD HAZARD RWY 28 PP000
Conditions at: SPZO (CUZCO/VELAZCO AS, PE) observed 1900 UTC 23 August 2019
Temperature: 19.0°C (66°F)
Dewpoint: -6.0°C (21°F) [RH = 18%]
Pressure (altimeter): 30.53 inches Hg (1034.0 mb)
Winds: from the S (190 degrees) at 3 MPH (3 knots; 1.5 m/s)
Visibility: 6 or more miles (10+ km)
Ceiling: at least 12,000 feet AGL
Clouds: few clouds at 5000 feet AGL
Weather: no significant weather observed at this time

METAR text: SPZO 231830Z VRB02KT 9999 FEW050 18/M07 Q1034 NOSIG RMK BIRD HAZARD RWY 28
Conditions at: SPZO (CUZCO/VELAZCO AS, PE) observed 1830 UTC 23 August 2019
Temperature: 18.0°C (64°F)
Dewpoint: -7.0°C (19°F) [RH = 18%]
Pressure (altimeter): 30.53 inches Hg (1034.0 mb)
Winds: variable direction winds at 2 MPH (2 knots; 1.0 m/s)
Visibility: 6 or more miles (10+ km)
Ceiling: at least 12,000 feet AGL
Clouds: few clouds at 5000 feet AGL
Weather: no significant weather observed at this time

METAR text: SPZO 231800Z VRB05KT 9999 FEW050 18/M05 Q1035 NOSIG RMK BIRD HAZARD RWY 28 PP000
Conditions at: SPZO (CUZCO/VELAZCO AS, PE) observed 1800 UTC 23 August 2019
Temperature: 18.0°C (64°F)
Dewpoint: -5.0°C (23°F) [RH = 20%]
Pressure (altimeter): 30.56 inches Hg (1035.0 mb)
Winds: variable direction winds at 6 MPH (5 knots; 2.6 m/s)
Visibility: 6 or more miles (10+ km)
Ceiling: at least 12,000 feet AGL
Clouds: few clouds at 5000 feet AGL
Weather: no significant weather observed at this time

METAR text: SPZO 231730Z 01007KT 300V090 9999 FEW050 17/M05 Q1035 NOSIG RMK BIRD HAZARD RWY 28
Conditions at: SPZO (CUZCO/VELAZCO AS, PE) observed 1730 UTC 23 August 2019
Temperature: 17.0°C (63°F)
Dewpoint: -5.0°C (23°F) [RH = 22%]
Pressure (altimeter): 30.56 inches Hg (1035.0 mb)
Winds: from the N (10 degrees) at 8 MPH (7 knots; 3.6 m/s)
Visibility: 6 or more miles (10+ km)
Ceiling: at least 12,000 feet AGL
Clouds: few clouds at 5000 feet AGL
Weather: no significant weather observed at this time

METAR text: SPZO 231700Z VRB06KT 9999 FEW050 16/M04 Q1036 NOSIG RMK BIRD HAZARD RWY 28 PP000
Conditions at: SPZO (CUZCO/VELAZCO AS, PE) observed 1700 UTC 23 August 2019
Temperature: 16.0°C (61°F)
Dewpoint: -4.0°C (25°F) [RH = 25%]
Pressure (altimeter): 30.59 inches Hg (1036.0 mb)
Winds: variable direction winds at 7 MPH (6 knots; 3.1 m/s)
Visibility: 6 or more miles (10+ km)
Ceiling: at least 12,000 feet AGL
Clouds: few clouds at 5000 feet AGL
Weather: no significant weather observed at this time

METAR text: SPZO 231630Z VRB04KT 9999 FEW050 16/M03 Q1037 NOSIG RMK BIRD HAZARD RWY 28
Conditions at: SPZO (CUZCO/VELAZCO AS, PE) observed 1630 UTC 23 August 2019
Temperature: 16.0°C (61°F)
Dewpoint: -3.0°C (27°F) [RH = 27%]
Pressure (altimeter): 30.62 inches Hg (1037.0 mb)
Winds: variable direction winds at 5 MPH (4 knots; 2.1 m/s)
Visibility: 6 or more miles (10+ km)
Ceiling: at least 12,000 feet AGL
Clouds: few clouds at 5000 feet AGL
Weather: no significant weather observed at this time

METAR text: SPZO 231600Z VRB04KT 9999 FEW046 15/M03 Q1037 NOSIG RMK BIRD HAZARD RWY 28 PP000
Conditions at: SPZO (CUZCO/VELAZCO AS, PE) observed 1600 UTC 23 August 2019
Temperature: 15.0°C (59°F)
Dewpoint: -3.0°C (27°F) [RH = 29%]
Pressure (altimeter): 30.62 inches Hg (1037.0 mb)
Winds: variable direction winds at 5 MPH (4 knots; 2.1 m/s)
Visibility: 6 or more miles (10+ km)
Ceiling: at least 12,000 feet AGL
Clouds: few clouds at 4600 feet AGL
Weather: no significant weather observed at this time

METAR text: SPZO 231530Z 08002KT 9999 FEW080 15/M02 Q1038 NOSIG RMK BIRD HAZARD RWY 28
Conditions at: SPZO (CUZCO/VELAZCO AS, PE) observed 1530 UTC 23 August 2019
Temperature: 15.0°C (59°F)
Dewpoint: -2.0°C (28°F) [RH = 31%]
Pressure (altimeter): 30.65 inches Hg (1038.0 mb)
Winds: from the E (80 degrees) at 2 MPH (2 knots; 1.0 m/s)
Visibility: 6 or more miles (10+ km)
Ceiling: at least 12,000 feet AGL
Clouds: few clouds at 8000 feet AGL
Weather: no significant weather observed at this time

METAR text: SPZO 231500Z 17001KT 9999 FEW046 13/M02 Q1039 NOSIG RMK BIRD HAZARD RWY 28 PP000
Conditions at: SPZO (CUZCO/VELAZCO AS, PE) observed 1500 UTC 23 August 2019
Temperature: 13.0°C (55°F)
Dewpoint: -2.0°C (28°F) [RH = 35%]
Pressure (altimeter): 30.68 inches Hg (1039.0 mb)
Winds: from the S (170 degrees) at 1 MPH (1 knots; 0.5 m/s)
Visibility: 6 or more miles (10+ km)
Ceiling: at least 12,000 feet AGL
Clouds: few clouds at 4600 feet AGL
Weather: no significant weather observed at this time

METAR text: SPZO 231430Z 08002KT 9999 SCT080 13/M02 Q1039 NOSIG RMK BIRD HAZARD RWY 28
Conditions at: SPZO (CUZCO/VELAZCO AS, PE) observed 1430 UTC 23 August 2019
Temperature: 13.0°C (55°F)
Dewpoint: -2.0°C (28°F) [RH = 35%]
Pressure (altimeter): 30.68 inches Hg (1039.0 mb)
Winds: from the E (80 degrees) at 2 MPH (2 knots; 1.0 m/s)
Visibility: 6 or more miles (10+ km)
Ceiling: at least 12,000 feet AGL
Clouds: scattered clouds at 8000 feet AGL
Weather: no significant weather observed at this time

METAR text: SPZO 231400Z VRB03KT 9999 SCT046 11/M01 Q1039 NOSIG RMK BIRD HAZARD RWY 28 PP000
Conditions at: SPZO (CUZCO/VELAZCO AS, PE) observed 1400 UTC 23 August 2019
Temperature: 11.0°C (52°F)
Dewpoint: -1.0°C (30°F) [RH = 43%]
Pressure (altimeter): 30.68 inches Hg (1039.0 mb)
Winds: variable direction winds at 3 MPH (3 knots; 1.5 m/s)
Visibility: 6 or more miles (10+ km)
Ceiling: at least 12,000 feet AGL
Clouds: scattered clouds at 4600 feet AGL
Weather: no significant weather observed at this time

METAR text: SPZO 231330Z VRB03KT 9999 FEW046 SCT080 09/M02 Q1039 NOSIG RMK BIRD HAZARD RWY 28
Conditions at: SPZO (CUZCO/VELAZCO AS, PE) observed 1330 UTC 23 August 2019
Temperature: 9.0°C (48°F)
Dewpoint: -2.0°C (28°F) [RH = 46%]
Pressure (altimeter): 30.68 inches Hg (1039.0 mb)
Winds: variable direction winds at 3 MPH (3 knots; 1.5 m/s)
Visibility: 6 or more miles (10+ km)
Ceiling: at least 12,000 feet AGL
Clouds: few clouds at 4600 feet AGL
scattered clouds at 8000 feet AGL
Weather: no significant weather observed at this time

METAR text: SPZO 231300Z VRB03KT 9999 FEW046 SCT080 09/M01 Q1039 NOSIG RMK BIRD HAZARD RWY 28 PP000
Conditions at: SPZO (CUZCO/VELAZCO AS, PE) observed 1300 UTC 23 August 2019
Temperature: 9.0°C (48°F)
Dewpoint: -1.0°C (30°F) [RH = 49%]
Pressure (altimeter): 30.68 inches Hg (1039.0 mb)
Winds: variable direction winds at 3 MPH (3 knots; 1.5 m/s)
Visibility: 6 or more miles (10+ km)
Ceiling: at least 12,000 feet AGL
Clouds: few clouds at 4600 feet AGL
scattered clouds at 8000 feet AGL
Weather: no significant weather observed at this time

METAR text: SPZO 231230Z VRB01KT 9999 FEW046 BKN080 08/M02 Q1039 NOSIG RMK BIRD HAZARD RWY 28
Conditions at: SPZO (CUZCO/VELAZCO AS, PE) observed 1230 UTC 23 August 2019
Temperature: 8.0°C (46°F)
Dewpoint: -2.0°C (28°F) [RH = 49%]
Pressure (altimeter): 30.68 inches Hg (1039.0 mb)
Winds: variable direction winds at 1 MPH (1 knots; 0.5 m/s)
Visibility: 6 or more miles (10+ km)
Ceiling: 8000 feet AGL
Clouds: few clouds at 4600 feet AGL
broken clouds at 8000 feet AGL
Weather: no significant weather observed at this time

METAR text: SPZO 231200Z 29003KT 9999 FEW043 BKN080 06/M01 Q1038 NOSIG RMK HZ TN3.0 BIRD HAZARD RWY 28 PP000
Conditions at: SPZO (CUZCO/VELAZCO AS, PE) observed 1200 UTC 23 August 2019
Temperature: 6.0°C (43°F)
Dewpoint: -1.0°C (30°F) [RH = 61%]
Pressure (altimeter): 30.65 inches Hg (1038.0 mb)
Winds: from the WNW (290 degrees) at 3 MPH (3 knots; 1.5 m/s)
Visibility: 6 or more miles (10+ km)
Ceiling: 8000 feet AGL
Clouds: few clouds at 4300 feet AGL
broken clouds at 8000 feet AGL
Weather: no significant weather observed at this time

METAR text: SPZO 231130Z VRB02KT 9999 FEW043 BKN080 05/M01 Q1038 NOSIG RMK BIRD HAZARD RWY 28
Conditions at: SPZO (CUZCO/VELAZCO AS, PE) observed 1130 UTC 23 August 2019
Temperature: 5.0°C (41°F)
Dewpoint: -1.0°C (30°F) [RH = 65%]
Pressure (altimeter): 30.65 inches Hg (1038.0 mb)
Winds: variable direction winds at 2 MPH (2 knots; 1.0 m/s)
Visibility: 6 or more miles (10+ km)
Ceiling: 8000 feet AGL
Clouds: few clouds at 4300 feet AGL
broken clouds at 8000 feet AGL
Weather: no significant weather observed at this time

METAR text: SPZO 231100Z 27002KT 9999 FEW046 SCT080 04/M02 Q1037 NOSIG RMK HZ QUAD NE BIRD HAZARD RWY 28 PP000
Conditions at: SPZO (CUZCO/VELAZCO AS, PE) observed 1100 UTC 23 August 2019
Temperature: 4.0°C (39°F)
Dewpoint: -2.0°C (28°F) [RH = 65%]
Pressure (altimeter): 30.62 inches Hg (1037.0 mb)
Winds: from the W (270 degrees) at 2 MPH (2 knots; 1.0 m/s)
Visibility: 6 or more miles (10+ km)
Ceiling: at least 12,000 feet AGL
Clouds: few clouds at 4600 feet AGL
scattered clouds at 8000 feet AGL
Weather: no significant weather observed at this time

METAR text: SPZO 231030Z 29001KT 9999 FEW050 03/M02 Q1037 NOSIG RMK BIRD HAZARD RWY 28
Conditions at: SPZO (CUZCO/VELAZCO AS, PE) observed 1030 UTC 23 August 2019
Temperature: 3.0°C (37°F)
Dewpoint: -2.0°C (28°F) [RH = 70%]
Pressure (altimeter): 30.62 inches Hg (1037.0 mb)
Winds: from the WNW (290 degrees) at 1 MPH (1 knots; 0.5 m/s)
Visibility: 6 or more miles (10+ km)
Ceiling: at least 12,000 feet AGL
Clouds: few clouds at 5000 feet AGL
Weather: no significant weather observed at this time

METAR text: SPZO 231000Z 31002KT 9999 FEW050 04/M02 Q1037 RMK BIRD HAZARD RWY 28 PP000
Conditions at: SPZO (CUZCO/VELAZCO AS, PE) observed 1000 UTC 23 August 2019
Temperature: 4.0°C (39°F)
Dewpoint: -2.0°C (28°F) [RH = 65%]
Pressure (altimeter): 30.62 inches Hg (1037.0 mb)
Winds: from the NW (310 degrees) at 2 MPH (2 knots; 1.0 m/s)
Visibility: 6 or more miles (10+ km)
Ceiling: at least 12,000 feet AGL
Clouds: few clouds at 5000 feet AGL
Weather: no significant weather observed at this time

METAR text: SPZO 230900Z 29003KT 210V290 9999 FEW046 04/M02 Q1037 RMK BIRD HAZARD RWY 28 PP000
Conditions at: SPZO (CUZCO/VELAZCO AS, PE) observed 0900 UTC 23 August 2019
Temperature: 4.0°C (39°F)
Dewpoint: -2.0°C (28°F) [RH = 65%]
Pressure (altimeter): 30.62 inches Hg (1037.0 mb)
Winds: from the WNW (290 degrees) at 3 MPH (3 knots; 1.5 m/s)
Visibility: 6 or more miles (10+ km)
Ceiling: at least 12,000 feet AGL
Clouds: few clouds at 4600 feet AGL
Weather: no significant weather observed at this time

METAR text: SPZO 230800Z 09002KT 9999 FEW046 SCT100 05/M01 Q1036 RMK PP000
Conditions at: SPZO (CUZCO/VELAZCO AS, PE) observed 0800 UTC 23 August 2019
Temperature: 5.0°C (41°F)
Dewpoint: -1.0°C (30°F) [RH = 65%]
Pressure (altimeter): 30.59 inches Hg (1036.0 mb)
Winds: from the E (90 degrees) at 2 MPH (2 knots; 1.0 m/s)
Visibility: 6 or more miles (10+ km)
Ceiling: at least 12,000 feet AGL
Clouds: few clouds at 4600 feet AGL
scattered clouds at 10000 feet AGL
Weather: no significant weather observed at this time

METAR text: SPZO 230700Z 00000KT 9999 FEW046 SCT100 05/M01 Q1036 RMK PP000
Conditions at: SPZO (CUZCO/VELAZCO AS, PE) observed 0700 UTC 23 August 2019
Temperature: 5.0°C (41°F)
Dewpoint: -1.0°C (30°F) [RH = 65%]
Pressure (altimeter): 30.59 inches Hg (1036.0 mb)
Winds: calm
Visibility: 6 or more miles (10+ km)
Ceiling: at least 12,000 feet AGL
Clouds: few clouds at 4600 feet AGL
scattered clouds at 10000 feet AGL
Weather: no significant weather observed at this time

METAR text: SPZO 230600Z 29004KT 9999 FEW046 SCT100 05/M01 Q1036 RMK PP000
Conditions at: SPZO (CUZCO/VELAZCO AS, PE) observed 0600 UTC 23 August 2019
Temperature: 5.0°C (41°F)
Dewpoint: -1.0°C (30°F) [RH = 65%]
Pressure (altimeter): 30.59 inches Hg (1036.0 mb)
Winds: from the WNW (290 degrees) at 5 MPH (4 knots; 2.1 m/s)
Visibility: 6 or more miles (10+ km)
Ceiling: at least 12,000 feet AGL
Clouds: few clouds at 4600 feet AGL
scattered clouds at 10000 feet AGL
Weather: no significant weather observed at this time

METAR text: SPZO 230500Z 28004KT 9999 FEW046 SCT100 07/M01 Q1037 RMK PP000
Conditions at: SPZO (CUZCO/VELAZCO AS, PE) observed 0500 UTC 23 August 2019
Temperature: 7.0°C (45°F)
Dewpoint: -1.0°C (30°F) [RH = 57%]
Pressure (altimeter): 30.62 inches Hg (1037.0 mb)
Winds: from the W (280 degrees) at 5 MPH (4 knots; 2.1 m/s)
Visibility: 6 or more miles (10+ km)
Ceiling: at least 12,000 feet AGL
Clouds: few clouds at 4600 feet AGL
scattered clouds at 10000 feet AGL
Weather: no significant weather observed at this time

METAR text: SPZO 230400Z 36001KT 9999 FEW050 SCT100 08/M01 Q1037 RMK PP000
Conditions at: SPZO (CUZCO/VELAZCO AS, PE) observed 0400 UTC 23 August 2019
Temperature: 8.0°C (46°F)
Dewpoint: -1.0°C (30°F) [RH = 53%]
Pressure (altimeter): 30.62 inches Hg (1037.0 mb)
Winds: from the N (360 degrees) at 1 MPH (1 knots; 0.5 m/s)
Visibility: 6 or more miles (10+ km)
Ceiling: at least 12,000 feet AGL
Clouds: few clouds at 5000 feet AGL
scattered clouds at 10000 feet AGL
Weather: no significant weather observed at this time

METAR text: SPZO 230300Z 29004KT 9999 FEW050 SCT100 10/M01 Q1036 RMK PP000
Conditions at: SPZO (CUZCO/VELAZCO AS, PE) observed 0300 UTC 23 August 2019
Temperature: 10.0°C (50°F)
Dewpoint: -1.0°C (30°F) [RH = 46%]
Pressure (altimeter): 30.59 inches Hg (1036.0 mb)
Winds: from the WNW (290 degrees) at 5 MPH (4 knots; 2.1 m/s)
Visibility: 6 or more miles (10+ km)
Ceiling: at least 12,000 feet AGL
Clouds: few clouds at 5000 feet AGL
scattered clouds at 10000 feet AGL
Weather: no significant weather observed at this time

Forecast for: SPZO (CUZCO/VELAZCO AS, PE)
Text: TAF SPZO 241100Z 2412/2512 36001KT 9999 NSC TX21/2419Z TN01/2511Z
Forecast period: 1200 UTC 24 August 2019 to 1200 UTC 25 August 2019
Forecast type: FROM: standard forecast or significant change
Winds: from the N (360 degrees) at 1 MPH (1 knots; 0.5 m/s)
Visibility: 6 or more miles 10+ km)
Ceiling: unknown
Clouds: missing
Weather: no significant weather forecast for this period
Text: TEMPO 2418/2422 28010KT
Forecast period: 1800 to 2200 UTC 24 August 2019
Forecast type: TEMPORARY: The following changes expected for less than half the time period
Winds: from the W (280 degrees) at 12 MPH (10 knots; 5.1 m/s)
Visibility: missing
Ceiling: unknown
Clouds: missing
Weather: no significant weather forecast for this period
Text: TEMPO 2422/2423 36010KT
Forecast period: 2200 to 2300 UTC 24 August 2019
Forecast type: TEMPORARY: The following changes expected for less than half the time period
Winds: from the N (360 degrees) at 12 MPH (10 knots; 5.1 m/s)
Visibility: missing
Ceiling: unknown
Clouds: missing
Weather: no significant weather forecast for this period